createdAt,value
2017-06-18T00:15:09.419Z,1024.513
2017-06-18T07:09:28.884Z,1025.481
2017-06-18T07:12:23.263Z,1025.511
2017-06-18T07:15:18.261Z,1025.484
2017-06-18T07:18:13.582Z,1025.489
2017-06-18T07:21:08.950Z,1025.510
2017-06-18T07:27:16.467Z,1025.546
2017-06-18T07:30:01.449Z,1025.532
2017-06-18T07:32:56.284Z,1025.507
2017-06-18T07:35:51.537Z,1025.533
2017-06-18T07:38:47.037Z,1025.554
2017-06-18T07:41:42.460Z,1025.622
2017-06-18T07:44:37.961Z,1025.561
2017-06-18T07:47:33.462Z,1025.598
2017-06-18T07:50:28.991Z,1025.594
2017-06-18T07:53:24.475Z,1025.592
2017-06-18T07:56:20.031Z,1025.583
2017-06-18T07:59:15.587Z,1025.627
2017-06-18T08:02:11.231Z,1025.516
2017-06-18T08:05:06.815Z,1025.526
2017-06-18T08:08:02.780Z,1025.553
2017-06-18T08:10:58.536Z,1025.553
2017-06-18T08:13:54.378Z,1025.495
2017-06-18T08:16:50.333Z,1025.544
2017-06-18T08:19:46.143Z,1025.573
2017-06-18T08:22:42.144Z,1025.571
2017-06-18T08:25:37.989Z,1025.547
2017-06-18T08:28:33.933Z,1025.538
2017-06-18T08:31:29.905Z,1025.561
2017-06-18T08:34:25.818Z,1025.472
2017-06-18T08:37:21.646Z,1025.516
2017-06-18T08:40:17.550Z,1025.535
2017-06-18T08:43:13.381Z,1025.477
2017-06-18T08:46:09.270Z,1025.503
2017-06-18T08:49:05.315Z,1025.428
2017-06-18T08:52:01.488Z,1025.363
2017-06-18T08:54:57.601Z,1025.422
2017-06-18T08:57:53.743Z,1025.423
2017-06-18T09:00:49.880Z,1025.426
2017-06-18T09:03:45.961Z,1025.441
2017-06-18T09:06:42.130Z,1025.392
2017-06-18T09:09:38.257Z,1025.460
2017-06-18T09:12:34.455Z,1025.405
2017-06-18T09:15:30.646Z,1025.312
2017-06-18T09:18:26.894Z,1025.325
2017-06-18T09:21:23.208Z,1025.328
2017-06-18T09:24:19.302Z,1025.319
2017-06-18T09:27:15.416Z,1025.303
2017-06-18T09:30:11.530Z,1025.300
2017-06-18T09:33:07.595Z,1025.309
2017-06-18T09:36:03.607Z,1025.210
2017-06-18T09:38:59.712Z,1025.185
2017-06-18T09:41:55.909Z,1025.204
2017-06-18T09:44:51.942Z,1025.174
2017-06-18T09:47:48.078Z,1025.164
2017-06-18T09:50:44.304Z,1025.171
2017-06-18T09:53:40.540Z,1025.183
2017-06-18T09:56:36.627Z,1025.152
2017-06-18T09:59:32.979Z,1025.170
2017-06-18T10:02:29.305Z,1025.090
2017-06-18T10:05:25.632Z,1025.036
2017-06-18T10:08:21.943Z,1025.042
2017-06-18T10:11:18.457Z,1025.084
2017-06-18T10:14:14.842Z,1025.022
2017-06-18T10:17:11.342Z,1025.013
2017-06-18T10:20:07.677Z,1024.997
2017-06-18T10:23:04.059Z,1024.922
2017-06-18T10:26:00.213Z,1024.926
2017-06-18T10:28:56.507Z,1024.845
2017-06-18T10:31:52.452Z,1024.931
2017-06-18T10:34:48.165Z,1024.889
2017-06-18T10:37:43.863Z,1024.987
2017-06-18T10:40:39.556Z,1024.959
2017-06-18T10:43:35.082Z,1024.942
2017-06-18T10:46:30.628Z,1024.981
2017-06-18T10:49:26.268Z,1025.046
2017-06-18T10:52:21.702Z,1024.969
2017-06-18T10:55:17.140Z,1025.010
2017-06-18T10:58:12.561Z,1025.023
2017-06-18T11:01:08.029Z,1024.941
2017-06-18T11:04:03.458Z,1024.926
2017-06-18T11:06:58.960Z,1024.947
2017-06-18T11:09:54.223Z,1024.948
2017-06-18T11:12:49.497Z,1024.903
2017-06-18T11:15:44.801Z,1024.866
2017-06-18T11:18:40.212Z,1024.831
2017-06-18T11:21:35.626Z,1024.801
2017-06-18T11:24:30.996Z,1024.776
2017-06-18T11:30:21.824Z,1024.799
2017-06-18T11:33:17.149Z,1024.779
2017-06-18T11:39:07.521Z,1024.768
2017-06-18T11:42:02.687Z,1024.703
2017-06-18T11:44:57.860Z,1024.693
2017-06-18T11:47:53.016Z,1024.658
2017-06-18T11:53:43.529Z,1024.667
2017-06-18T11:59:33.733Z,1024.577
2017-06-18T12:02:28.799Z,1024.613
2017-06-18T12:08:18.876Z,1024.614
2017-06-18T12:11:13.925Z,1024.599
2017-06-18T12:14:09.117Z,1024.561
2017-06-18T12:17:04.480Z,1024.552
2017-06-18T12:19:59.807Z,1024.533
2017-06-18T12:22:55.207Z,1024.579
2017-06-18T12:28:45.846Z,1024.585
2017-06-18T12:31:41.319Z,1024.544
2017-06-18T12:34:36.540Z,1024.513
2017-06-18T12:37:31.871Z,1024.551
2017-06-18T12:40:27.241Z,1024.589
2017-06-18T12:43:22.507Z,1024.508
2017-06-18T12:46:17.756Z,1024.457
2017-06-18T12:49:13.023Z,1024.445
2017-06-18T12:52:08.257Z,1024.425
2017-06-18T12:55:03.536Z,1024.448
2017-06-18T12:57:58.813Z,1024.400
2017-06-18T13:00:54.265Z,1024.436
2017-06-18T13:03:49.683Z,1024.397
2017-06-18T13:09:40.457Z,1024.331
2017-06-18T13:12:35.753Z,1024.357
2017-06-18T13:15:31.162Z,1024.331
2017-06-18T13:18:26.579Z,1024.336
2017-06-18T13:21:21.964Z,1024.346
2017-06-18T13:24:17.558Z,1024.381
2017-06-18T13:27:12.857Z,1024.304
2017-06-18T13:30:08.420Z,1024.273
2017-06-18T13:33:03.843Z,1024.297
2017-06-18T13:35:59.151Z,1024.274
2017-06-18T13:41:49.874Z,1024.241
2017-06-18T13:44:45.169Z,1024.206
2017-06-18T13:50:35.854Z,1024.145
2017-06-18T13:53:31.113Z,1024.115
2017-06-18T13:56:26.563Z,1024.105
2017-06-18T13:59:21.973Z,1024.084
2017-06-18T14:02:17.257Z,1024.107
2017-06-18T14:05:12.539Z,1024.120
2017-06-18T14:08:07.820Z,1024.077
2017-06-18T14:13:58.417Z,1024.081
2017-06-18T14:16:53.839Z,1024.082
2017-06-18T14:19:49.039Z,1024.071
2017-06-18T14:22:44.331Z,1024.090
2017-06-18T14:25:39.659Z,1024.019
2017-06-18T14:28:35.008Z,1024.006
2017-06-18T14:31:30.297Z,1024.004
2017-06-18T14:34:25.544Z,1023.990
2017-06-18T14:37:20.791Z,1023.995
2017-06-18T14:40:16.138Z,1024.039
2017-06-18T14:43:11.449Z,1024.015
2017-06-18T14:46:06.871Z,1024.000
2017-06-18T14:49:02.165Z,1023.973
2017-06-18T14:51:57.383Z,1023.939
2017-06-18T14:54:52.890Z,1023.993
2017-06-18T14:57:48.194Z,1023.978
2017-06-18T15:00:43.434Z,1023.961
2017-06-18T15:03:38.789Z,1023.992
2017-06-18T15:06:34.100Z,1024.029
2017-06-18T15:09:29.432Z,1024.008
2017-06-18T15:12:24.786Z,1023.991
2017-06-18T15:15:20.065Z,1023.969
2017-06-18T15:18:15.320Z,1023.949
2017-06-18T15:21:10.681Z,1023.929
2017-06-18T15:24:06.033Z,1023.932
2017-06-18T15:27:01.300Z,1023.933
2017-06-18T15:29:56.685Z,1023.848
2017-06-18T15:32:52.072Z,1023.861
2017-06-18T15:35:47.355Z,1023.850
2017-06-18T15:38:42.718Z,1023.870
2017-06-18T15:41:38.051Z,1023.818
2017-06-18T15:44:33.247Z,1023.792
2017-06-18T15:47:28.540Z,1023.795
2017-06-18T15:50:23.879Z,1023.788
2017-06-18T15:53:19.183Z,1023.790
2017-06-18T15:56:14.563Z,1023.756
2017-06-18T15:59:09.908Z,1023.756
2017-06-18T16:05:00.498Z,1023.739
2017-06-18T16:07:55.761Z,1023.667
2017-06-18T16:10:51.094Z,1023.687
2017-06-18T16:13:46.327Z,1023.672
2017-06-18T16:16:41.918Z,1023.676
2017-06-18T16:19:37.229Z,1023.660
2017-06-18T16:22:32.517Z,1023.673
2017-06-18T16:25:27.911Z,1023.707
2017-06-18T16:28:23.219Z,1023.662
2017-06-18T16:31:18.590Z,1023.649
2017-06-18T16:38:33.733Z,1023.665
2017-06-18T16:44:19.374Z,1023.651
2017-06-18T16:47:25.639Z,1023.671
2017-06-18T16:52:09.018Z,1023.597
2017-06-18T16:59:02.757Z,1023.562
2017-06-18T17:01:58.283Z,1023.547
2017-06-18T17:05:10.702Z,1023.592
2017-06-18T17:10:48.430Z,1023.575
2017-06-18T17:24:28.511Z,1023.553
2017-06-18T17:27:12.599Z,1023.588
2017-06-18T17:30:06.761Z,1023.578
2017-06-18T17:35:56.723Z,1023.665
2017-06-18T17:48:22.876Z,1023.669
2017-06-18T17:51:09.651Z,1023.665
2017-06-18T17:54:04.587Z,1023.678
2017-06-18T17:59:55.200Z,1023.608
2017-06-18T18:05:39.926Z,1023.564
2017-06-18T18:09:10.016Z,1023.581
2017-06-18T18:11:56.282Z,1023.582
2017-06-18T18:15:25.050Z,1023.552
2017-06-18T18:18:12.273Z,1023.525
2017-06-18T18:27:20.159Z,1023.488
2017-06-18T18:30:04.374Z,1023.524
2017-06-18T18:32:58.721Z,1023.532
2017-06-18T18:35:53.594Z,1023.517
2017-06-18T18:39:00.136Z,1023.528
2017-06-18T18:41:50.525Z,1023.512
2017-06-18T18:44:45.753Z,1023.472
2017-06-18T18:47:40.915Z,1023.486
2017-06-18T18:50:36.161Z,1023.465
2017-06-18T19:09:50.952Z,1023.530
2017-06-18T19:12:34.996Z,1023.552
2017-06-18T19:18:24.047Z,1023.641
2017-06-18T19:21:19.163Z,1023.660
2017-06-18T19:24:48.288Z,1023.658
